Plymouth, North Carolina
Current Conditions -  °F | °C
As of 4:55 AM on Sunday 23 Nov 2014 (Local Time) from KEDE Reporting Station
NA  
Wind Chill: 37°   Ceiling: NA
Heat Index: 37°   Visibility: 10mi
Dew Point: 35°   Wind: 0mph
Humidity: 91%   Direction: NA
Pressure: 30.31"   Gusts: NA
Location:  35.87°N, 76.75°W
Report Text: KEDE 230955Z AUTO 00000KT 10SM 03/02 A3031 RMK AO2 T00300016
Loading
Personal Weather Stations






























Interactive Weather Map New forecast layout! Learn more

10-Day Weather Forecast

Advertisements
Track Severe Weather on mobile